sensor_id;sensor_type;location;lat;lon;timestamp;P1;durP1;ratioP1;P2;durP2;ratioP2
29854;SDS011;16733;48.738;9.106;2024-01-30T00:01:51;5.13;;;2.65;;
29854;SDS011;16733;48.738;9.106;2024-01-30T00:04:17;5.82;;;2.85;;
29854;SDS011;16733;48.738;9.106;2024-01-30T00:06:43;3.47;;;2.13;;
29854;SDS011;16733;48.738;9.106;2024-01-30T00:09:09;6.15;;;2.67;;
29854;SDS011;16733;48.738;9.106;2024-01-30T00:11:36;4.00;;;2.50;;
29854;SDS011;16733;48.738;9.106;2024-01-30T00:14:03;2.58;;;1.95;;
29854;SDS011;16733;48.738;9.106;2024-01-30T00:16:29;3.28;;;2.28;;
29854;SDS011;16733;48.738;9.106;2024-01-30T00:18:55;4.15;;;2.10;;
29854;SDS011;16733;48.738;9.106;2024-01-30T00:21:21;4.97;;;2.03;;
29854;SDS011;16733;48.738;9.106;2024-01-30T00:23:48;3.50;;;2.33;;
29854;SDS011;16733;48.738;9.106;2024-01-30T00:26:14;3.90;;;2.15;;
29854;SDS011;16733;48.738;9.106;2024-01-30T00:28:40;3.25;;;1.85;;
29854;SDS011;16733;48.738;9.106;2024-01-30T00:31:06;4.30;;;2.22;;
29854;SDS011;16733;48.738;9.106;2024-01-30T00:33:32;5.80;;;2.47;;
29854;SDS011;16733;48.738;9.106;2024-01-30T00:35:58;5.25;;;2.45;;
29854;SDS011;16733;48.738;9.106;2024-01-30T00:38:24;7.72;;;2.67;;
29854;SDS011;16733;48.738;9.106;2024-01-30T00:40:50;4.40;;;2.45;;
29854;SDS011;16733;48.738;9.106;2024-01-30T00:43:16;4.35;;;2.38;;
29854;SDS011;16733;48.738;9.106;2024-01-30T00:45:45;3.50;;;2.15;;
29854;SDS011;16733;48.738;9.106;2024-01-30T00:48:11;6.13;;;2.50;;
29854;SDS011;16733;48.738;9.106;2024-01-30T00:50:37;4.35;;;1.95;;
29854;SDS011;16733;48.738;9.106;2024-01-30T00:53:03;7.97;;;2.50;;
29854;SDS011;16733;48.738;9.106;2024-01-30T00:55:29;4.90;;;2.38;;
29854;SDS011;16733;48.738;9.106;2024-01-30T00:57:55;5.25;;;2.00;;
29854;SDS011;16733;48.738;9.106;2024-01-30T01:00:21;5.68;;;2.28;;
29854;SDS011;16733;48.738;9.106;2024-01-30T01:02:53;8.23;;;2.47;;
29854;SDS011;16733;48.738;9.106;2024-01-30T01:05:19;2.75;;;2.13;;
29854;SDS011;16733;48.738;9.106;2024-01-30T01:07:45;3.30;;;1.95;;
29854;SDS011;16733;48.738;9.106;2024-01-30T01:10:13;3.25;;;1.75;;
29854;SDS011;16733;48.738;9.106;2024-01-30T01:12:39;8.07;;;2.70;;
29854;SDS011;16733;48.738;9.106;2024-01-30T01:15:05;5.90;;;2.97;;
29854;SDS011;16733;48.738;9.106;2024-01-30T01:17:34;5.25;;;2.42;;
29854;SDS011;16733;48.738;9.106;2024-01-30T01:20:00;2.83;;;1.83;;
29854;SDS011;16733;48.738;9.106;2024-01-30T01:22:26;4.28;;;2.35;;
29854;SDS011;16733;48.738;9.106;2024-01-30T01:24:52;4.38;;;1.98;;
29854;SDS011;16733;48.738;9.106;2024-01-30T01:27:18;2.63;;;2.00;;
29854;SDS011;16733;48.738;9.106;2024-01-30T01:29:44;7.50;;;2.35;;
29854;SDS011;16733;48.738;9.106;2024-01-30T01:32:10;5.43;;;1.90;;
29854;SDS011;16733;48.738;9.106;2024-01-30T01:34:36;3.30;;;1.85;;
29854;SDS011;16733;48.738;9.106;2024-01-30T01:37:02;3.60;;;1.98;;
29854;SDS011;16733;48.738;9.106;2024-01-30T01:39:28;7.32;;;2.25;;
29854;SDS011;16733;48.738;9.106;2024-01-30T01:41:54;2.55;;;1.52;;
29854;SDS011;16733;48.738;9.106;2024-01-30T01:44:20;2.20;;;1.80;;
29854;SDS011;16733;48.738;9.106;2024-01-30T01:46:46;4.18;;;2.15;;
29854;SDS011;16733;48.738;9.106;2024-01-30T01:49:13;5.68;;;2.50;;
29854;SDS011;16733;48.738;9.106;2024-01-30T01:51:39;2.50;;;1.80;;
29854;SDS011;16733;48.738;9.106;2024-01-30T01:54:06;2.45;;;1.70;;
29854;SDS011;16733;48.738;9.106;2024-01-30T01:56:32;2.15;;;1.60;;
29854;SDS011;16733;48.738;9.106;2024-01-30T01:59:05;5.07;;;1.80;;
29854;SDS011;16733;48.738;9.106;2024-01-30T02:01:38;2.45;;;1.65;;
29854;SDS011;16733;48.738;9.106;2024-01-30T02:04:06;4.28;;;2.15;;
29854;SDS011;16733;48.738;9.106;2024-01-30T02:06:33;7.80;;;1.77;;
29854;SDS011;16733;48.738;9.106;2024-01-30T02:08:59;2.92;;;1.60;;
29854;SDS011;16733;48.738;9.106;2024-01-30T02:11:25;2.72;;;1.75;;
29854;SDS011;16733;48.738;9.106;2024-01-30T02:13:51;4.82;;;1.70;;
29854;SDS011;16733;48.738;9.106;2024-01-30T02:16:18;4.43;;;2.05;;
29854;SDS011;16733;48.738;9.106;2024-01-30T02:18:44;2.70;;;1.70;;
29854;SDS011;16733;48.738;9.106;2024-01-30T02:21:12;4.28;;;2.00;;
29854;SDS011;16733;48.738;9.106;2024-01-30T02:23:39;5.63;;;1.85;;
29854;SDS011;16733;48.738;9.106;2024-01-30T02:26:05;3.55;;;2.38;;
29854;SDS011;16733;48.738;9.106;2024-01-30T02:28:31;2.63;;;1.75;;
29854;SDS011;16733;48.738;9.106;2024-01-30T02:30:57;3.75;;;2.08;;
29854;SDS011;16733;48.738;9.106;2024-01-30T02:33:23;6.60;;;2.55;;
29854;SDS011;16733;48.738;9.106;2024-01-30T02:35:49;4.13;;;2.33;;
29854;SDS011;16733;48.738;9.106;2024-01-30T02:38:15;6.28;;;2.15;;
29854;SDS011;16733;48.738;9.106;2024-01-30T02:40:41;3.05;;;1.95;;
29854;SDS011;16733;48.738;9.106;2024-01-30T02:43:07;3.22;;;1.80;;
29854;SDS011;16733;48.738;9.106;2024-01-30T02:45:33;3.08;;;1.77;;
29854;SDS011;16733;48.738;9.106;2024-01-30T02:48:00;4.43;;;1.83;;
29854;SDS011;16733;48.738;9.106;2024-01-30T02:50:25;6.60;;;2.42;;
29854;SDS011;16733;48.738;9.106;2024-01-30T02:52:51;5.45;;;2.20;;
29854;SDS011;16733;48.738;9.106;2024-01-30T02:55:17;5.95;;;2.33;;
29854;SDS011;16733;48.738;9.106;2024-01-30T02:57:44;4.25;;;2.42;;
29854;SDS011;16733;48.738;9.106;2024-01-30T03:00:10;3.42;;;1.83;;
29854;SDS011;16733;48.738;9.106;2024-01-30T03:02:36;3.67;;;1.92;;
29854;SDS011;16733;48.738;9.106;2024-01-30T03:05:02;2.80;;;2.00;;
29854;SDS011;16733;48.738;9.106;2024-01-30T03:07:29;3.20;;;2.10;;
29854;SDS011;16733;48.738;9.106;2024-01-30T03:09:55;3.55;;;2.20;;
29854;SDS011;16733;48.738;9.106;2024-01-30T03:12:21;3.55;;;1.55;;
29854;SDS011;16733;48.738;9.106;2024-01-30T03:14:47;4.63;;;2.22;;
29854;SDS011;16733;48.738;9.106;2024-01-30T03:17:14;4.63;;;2.13;;
29854;SDS011;16733;48.738;9.106;2024-01-30T03:19:40;5.10;;;1.95;;
29854;SDS011;16733;48.738;9.106;2024-01-30T03:22:06;3.03;;;1.85;;
29854;SDS011;16733;48.738;9.106;2024-01-30T03:24:32;2.42;;;1.55;;
29854;SDS011;16733;48.738;9.106;2024-01-30T03:26:58;3.35;;;1.88;;
29854;SDS011;16733;48.738;9.106;2024-01-30T03:29:24;3.90;;;1.90;;
29854;SDS011;16733;48.738;9.106;2024-01-30T03:31:50;2.42;;;1.65;;
29854;SDS011;16733;48.738;9.106;2024-01-30T03:34:16;5.72;;;1.63;;
29854;SDS011;16733;48.738;9.106;2024-01-30T03:36:42;2.75;;;1.98;;
29854;SDS011;16733;48.738;9.106;2024-01-30T03:39:08;4.95;;;1.98;;
29854;SDS011;16733;48.738;9.106;2024-01-30T03:41:34;2.47;;;1.60;;
29854;SDS011;16733;48.738;9.106;2024-01-30T03:44:00;2.75;;;1.70;;
29854;SDS011;16733;48.738;9.106;2024-01-30T03:46:26;3.88;;;1.35;;
29854;SDS011;16733;48.738;9.106;2024-01-30T03:48:52;3.03;;;1.98;;
29854;SDS011;16733;48.738;9.106;2024-01-30T03:51:18;2.90;;;1.92;;
29854;SDS011;16733;48.738;9.106;2024-01-30T03:53:44;2.45;;;1.70;;
29854;SDS011;16733;48.738;9.106;2024-01-30T03:56:11;6.15;;;1.58;;
29854;SDS011;16733;48.738;9.106;2024-01-30T03:58:38;6.47;;;1.58;;
29854;SDS011;16733;48.738;9.106;2024-01-30T04:01:04;2.60;;;1.50;;
29854;SDS011;16733;48.738;9.106;2024-01-30T04:03:30;6.00;;;2.03;;
29854;SDS011;16733;48.738;9.106;2024-01-30T04:05:56;3.60;;;2.45;;
29854;SDS011;16733;48.738;9.106;2024-01-30T04:08:22;3.65;;;1.88;;
29854;SDS011;16733;48.738;9.106;2024-01-30T04:10:48;5.20;;;2.00;;
29854;SDS011;16733;48.738;9.106;2024-01-30T04:13:14;4.22;;;2.42;;
29854;SDS011;16733;48.738;9.106;2024-01-30T04:15:40;5.43;;;2.20;;
29854;SDS011;16733;48.738;9.106;2024-01-30T04:18:06;3.42;;;2.35;;
29854;SDS011;16733;48.738;9.106;2024-01-30T04:20:32;8.95;;;3.13;;
29854;SDS011;16733;48.738;9.106;2024-01-30T04:22:58;2.40;;;1.98;;
29854;SDS011;16733;48.738;9.106;2024-01-30T04:25:24;5.80;;;2.70;;
29854;SDS011;16733;48.738;9.106;2024-01-30T04:27:50;6.15;;;2.78;;
29854;SDS011;16733;48.738;9.106;2024-01-30T04:30:16;3.58;;;2.40;;
29854;SDS011;16733;48.738;9.106;2024-01-30T04:32:43;5.15;;;2.45;;
29854;SDS011;16733;48.738;9.106;2024-01-30T04:35:09;5.45;;;2.83;;
29854;SDS011;16733;48.738;9.106;2024-01-30T04:37:35;4.65;;;3.13;;
29854;SDS011;16733;48.738;9.106;2024-01-30T04:40:01;4.47;;;2.70;;
29854;SDS011;16733;48.738;9.106;2024-01-30T04:42:28;6.03;;;2.83;;
29854;SDS011;16733;48.738;9.106;2024-01-30T04:44:54;5.18;;;2.45;;
29854;SDS011;16733;48.738;9.106;2024-01-30T04:47:19;5.00;;;2.65;;
29854;SDS011;16733;48.738;9.106;2024-01-30T04:49:46;4.68;;;2.13;;
29854;SDS011;16733;48.738;9.106;2024-01-30T04:52:12;5.18;;;2.58;;
29854;SDS011;16733;48.738;9.106;2024-01-30T04:54:38;10.13;;;2.65;;
29854;SDS011;16733;48.738;9.106;2024-01-30T04:57:04;5.80;;;2.63;;
29854;SDS011;16733;48.738;9.106;2024-01-30T04:59:34;3.95;;;2.72;;
29854;SDS011;16733;48.738;9.106;2024-01-30T05:02:00;3.83;;;2.70;;
29854;SDS011;16733;48.738;9.106;2024-01-30T05:04:26;4.40;;;2.80;;
29854;SDS011;16733;48.738;9.106;2024-01-30T05:06:52;5.90;;;2.70;;
29854;SDS011;16733;48.738;9.106;2024-01-30T05:09:18;3.55;;;2.80;;
29854;SDS011;16733;48.738;9.106;2024-01-30T05:11:44;4.25;;;2.50;;
29854;SDS011;16733;48.738;9.106;2024-01-30T05:14:10;3.78;;;2.40;;
29854;SDS011;16733;48.738;9.106;2024-01-30T05:16:37;5.95;;;2.80;;
29854;SDS011;16733;48.738;9.106;2024-01-30T05:19:03;5.90;;;2.75;;
29854;SDS011;16733;48.738;9.106;2024-01-30T05:21:29;5.60;;;2.55;;
29854;SDS011;16733;48.738;9.106;2024-01-30T05:23:55;6.72;;;2.47;;
29854;SDS011;16733;48.738;9.106;2024-01-30T05:26:21;3.65;;;1.90;;
29854;SDS011;16733;48.738;9.106;2024-01-30T05:28:48;4.18;;;2.38;;
29854;SDS011;16733;48.738;9.106;2024-01-30T05:31:14;4.28;;;2.25;;
29854;SDS011;16733;48.738;9.106;2024-01-30T05:33:40;4.80;;;2.58;;
29854;SDS011;16733;48.738;9.106;2024-01-30T05:36:06;5.57;;;2.58;;
29854;SDS011;16733;48.738;9.106;2024-01-30T05:38:32;3.42;;;1.98;;
29854;SDS011;16733;48.738;9.106;2024-01-30T05:40:58;4.18;;;2.28;;
29854;SDS011;16733;48.738;9.106;2024-01-30T05:43:24;2.55;;;1.98;;
29854;SDS011;16733;48.738;9.106;2024-01-30T05:45:50;3.45;;;2.17;;
29854;SDS011;16733;48.738;9.106;2024-01-30T05:48:18;8.20;;;2.97;;
29854;SDS011;16733;48.738;9.106;2024-01-30T05:50:44;3.28;;;2.58;;
29854;SDS011;16733;48.738;9.106;2024-01-30T05:53:10;14.10;;;3.28;;
29854;SDS011;16733;48.738;9.106;2024-01-30T05:55:36;4.45;;;2.67;;
29854;SDS011;16733;48.738;9.106;2024-01-30T05:58:02;7.47;;;2.50;;
29854;SDS011;16733;48.738;9.106;2024-01-30T06:00:28;6.13;;;2.60;;
29854;SDS011;16733;48.738;9.106;2024-01-30T06:02:54;8.95;;;2.70;;
29854;SDS011;16733;48.738;9.106;2024-01-30T06:05:20;5.15;;;2.55;;
29854;SDS011;16733;48.738;9.106;2024-01-30T06:07:46;4.40;;;2.38;;
29854;SDS011;16733;48.738;9.106;2024-01-30T06:10:13;3.92;;;2.25;;
29854;SDS011;16733;48.738;9.106;2024-01-30T06:12:39;2.97;;;2.10;;
29854;SDS011;16733;48.738;9.106;2024-01-30T06:15:05;14.10;;;2.72;;
29854;SDS011;16733;48.738;9.106;2024-01-30T06:17:31;3.97;;;2.03;;
29854;SDS011;16733;48.738;9.106;2024-01-30T06:19:58;3.92;;;2.33;;
29854;SDS011;16733;48.738;9.106;2024-01-30T06:22:24;5.35;;;2.50;;
29854;SDS011;16733;48.738;9.106;2024-01-30T06:24:50;7.60;;;2.85;;
29854;SDS011;16733;48.738;9.106;2024-01-30T06:27:16;4.13;;;2.28;;
29854;SDS011;16733;48.738;9.106;2024-01-30T06:29:45;5.20;;;2.50;;
29854;SDS011;16733;48.738;9.106;2024-01-30T06:32:11;4.65;;;2.45;;
29854;SDS011;16733;48.738;9.106;2024-01-30T06:34:37;10.82;;;3.15;;
29854;SDS011;16733;48.738;9.106;2024-01-30T06:37:05;8.63;;;3.72;;
29854;SDS011;16733;48.738;9.106;2024-01-30T06:39:34;6.82;;;3.38;;
29854;SDS011;16733;48.738;9.106;2024-01-30T06:42:00;6.13;;;2.85;;
29854;SDS011;16733;48.738;9.106;2024-01-30T06:44:26;5.75;;;3.10;;
29854;SDS011;16733;48.738;9.106;2024-01-30T06:46:51;9.88;;;2.78;;
29854;SDS011;16733;48.738;9.106;2024-01-30T06:49:18;3.75;;;2.22;;
29854;SDS011;16733;48.738;9.106;2024-01-30T06:51:44;3.42;;;1.65;;
29854;SDS011;16733;48.738;9.106;2024-01-30T06:54:10;2.42;;;1.52;;
29854;SDS011;16733;48.738;9.106;2024-01-30T06:56:36;5.13;;;2.35;;
29854;SDS011;16733;48.738;9.106;2024-01-30T06:59:02;7.30;;;1.98;;
29854;SDS011;16733;48.738;9.106;2024-01-30T07:01:28;3.70;;;2.00;;
29854;SDS011;16733;48.738;9.106;2024-01-30T07:03:54;7.80;;;1.80;;
29854;SDS011;16733;48.738;9.106;2024-01-30T07:06:20;4.95;;;1.98;;
29854;SDS011;16733;48.738;9.106;2024-01-30T07:08:47;4.13;;;2.15;;
29854;SDS011;16733;48.738;9.106;2024-01-30T07:11:19;4.25;;;1.40;;
29854;SDS011;16733;48.738;9.106;2024-01-30T07:13:47;4.53;;;1.70;;
29854;SDS011;16733;48.738;9.106;2024-01-30T07:16:14;3.88;;;2.30;;
29854;SDS011;16733;48.738;9.106;2024-01-30T07:18:40;7.32;;;1.90;;
29854;SDS011;16733;48.738;9.106;2024-01-30T07:21:06;6.45;;;1.88;;
29854;SDS011;16733;48.738;9.106;2024-01-30T07:23:32;4.15;;;1.98;;
29854;SDS011;16733;48.738;9.106;2024-01-30T07:25:59;3.25;;;1.80;;
29854;SDS011;16733;48.738;9.106;2024-01-30T07:28:25;6.47;;;2.15;;
29854;SDS011;16733;48.738;9.106;2024-01-30T07:30:51;2.22;;;1.48;;
29854;SDS011;16733;48.738;9.106;2024-01-30T07:33:17;2.05;;;1.55;;
29854;SDS011;16733;48.738;9.106;2024-01-30T07:35:44;1.88;;;1.33;;
29854;SDS011;16733;48.738;9.106;2024-01-30T07:38:10;2.95;;;1.77;;
29854;SDS011;16733;48.738;9.106;2024-01-30T07:40:36;2.22;;;1.25;;
29854;SDS011;16733;48.738;9.106;2024-01-30T07:43:03;1.58;;;1.30;;
29854;SDS011;16733;48.738;9.106;2024-01-30T07:45:29;3.15;;;1.85;;
29854;SDS011;16733;48.738;9.106;2024-01-30T07:47:58;3.08;;;1.25;;
29854;SDS011;16733;48.738;9.106;2024-01-30T07:50:25;2.80;;;1.52;;
29854;SDS011;16733;48.738;9.106;2024-01-30T07:52:51;3.20;;;1.40;;
29854;SDS011;16733;48.738;9.106;2024-01-30T07:55:19;2.33;;;1.35;;
29854;SDS011;16733;48.738;9.106;2024-01-30T07:57:49;2.70;;;1.60;;
29854;SDS011;16733;48.738;9.106;2024-01-30T08:00:15;3.72;;;2.00;;
29854;SDS011;16733;48.738;9.106;2024-01-30T08:02:45;3.92;;;1.85;;
29854;SDS011;16733;48.738;9.106;2024-01-30T08:05:11;4.10;;;2.33;;
29854;SDS011;16733;48.738;9.106;2024-01-30T08:07:39;3.80;;;2.38;;
29854;SDS011;16733;48.738;9.106;2024-01-30T08:10:05;6.43;;;3.35;;
29854;SDS011;16733;48.738;9.106;2024-01-30T08:12:31;9.45;;;2.75;;
29854;SDS011;16733;48.738;9.106;2024-01-30T08:14:57;8.20;;;3.40;;
29854;SDS011;16733;48.738;9.106;2024-01-30T08:17:23;9.90;;;3.58;;
29854;SDS011;16733;48.738;9.106;2024-01-30T08:19:49;6.32;;;3.17;;
29854;SDS011;16733;48.738;9.106;2024-01-30T08:22:15;3.95;;;2.00;;
29854;SDS011;16733;48.738;9.106;2024-01-30T08:24:41;4.47;;;2.17;;
29854;SDS011;16733;48.738;9.106;2024-01-30T08:27:07;5.07;;;2.45;;
29854;SDS011;16733;48.738;9.106;2024-01-30T08:29:37;4.60;;;1.70;;
29854;SDS011;16733;48.738;9.106;2024-01-30T08:32:04;5.75;;;1.77;;
29854;SDS011;16733;48.738;9.106;2024-01-30T08:34:30;4.70;;;2.00;;
29854;SDS011;16733;48.738;9.106;2024-01-30T08:36:56;3.55;;;1.90;;
29854;SDS011;16733;48.738;9.106;2024-01-30T08:39:22;2.95;;;1.70;;
29854;SDS011;16733;48.738;9.106;2024-01-30T08:41:48;6.40;;;2.10;;
29854;SDS011;16733;48.738;9.106;2024-01-30T08:44:14;2.97;;;1.58;;
29854;SDS011;16733;48.738;9.106;2024-01-30T08:46:40;1.77;;;1.45;;
29854;SDS011;16733;48.738;9.106;2024-01-30T08:49:07;5.45;;;2.00;;
29854;SDS011;16733;48.738;9.106;2024-01-30T08:51:33;5.15;;;1.83;;
29854;SDS011;16733;48.738;9.106;2024-01-30T08:53:59;6.40;;;1.63;;
29854;SDS011;16733;48.738;9.106;2024-01-30T08:56:25;4.28;;;1.58;;
29854;SDS011;16733;48.738;9.106;2024-01-30T08:58:51;4.05;;;1.70;;
29854;SDS011;16733;48.738;9.106;2024-01-30T09:01:17;6.50;;;2.15;;
29854;SDS011;16733;48.738;9.106;2024-01-30T09:03:43;2.72;;;1.70;;
29854;SDS011;16733;48.738;9.106;2024-01-30T09:06:11;1.88;;;1.30;;
29854;SDS011;16733;48.738;9.106;2024-01-30T09:08:37;3.28;;;1.50;;
29854;SDS011;16733;48.738;9.106;2024-01-30T09:11:13;3.40;;;2.00;;
29854;SDS011;16733;48.738;9.106;2024-01-30T09:13:39;3.03;;;1.60;;
29854;SDS011;16733;48.738;9.106;2024-01-30T09:16:05;2.45;;;1.58;;
29854;SDS011;16733;48.738;9.106;2024-01-30T09:18:31;3.47;;;1.80;;
29854;SDS011;16733;48.738;9.106;2024-01-30T09:20:57;2.13;;;1.42;;
29854;SDS011;16733;48.738;9.106;2024-01-30T09:23:23;3.88;;;1.80;;
29854;SDS011;16733;48.738;9.106;2024-01-30T09:25:49;4.85;;;1.42;;
29854;SDS011;16733;48.738;9.106;2024-01-30T09:28:17;2.58;;;1.77;;
29854;SDS011;16733;48.738;9.106;2024-01-30T09:30:43;10.70;;;2.03;;
29854;SDS011;16733;48.738;9.106;2024-01-30T09:33:09;4.35;;;1.40;;
29854;SDS011;16733;48.738;9.106;2024-01-30T09:35:35;3.67;;;1.70;;
29854;SDS011;16733;48.738;9.106;2024-01-30T09:38:04;2.72;;;1.50;;
29854;SDS011;16733;48.738;9.106;2024-01-30T09:40:30;2.50;;;1.50;;
29854;SDS011;16733;48.738;9.106;2024-01-30T09:42:56;2.05;;;1.33;;
29854;SDS011;16733;48.738;9.106;2024-01-30T09:45:27;4.25;;;1.80;;
29854;SDS011;16733;48.738;9.106;2024-01-30T09:47:53;2.17;;;1.17;;
29854;SDS011;16733;48.738;9.106;2024-01-30T09:50:19;4.60;;;1.40;;
29854;SDS011;16733;48.738;9.106;2024-01-30T09:52:46;3.30;;;1.70;;
29854;SDS011;16733;48.738;9.106;2024-01-30T09:55:12;3.95;;;1.50;;
29854;SDS011;16733;48.738;9.106;2024-01-30T09:57:38;2.85;;;1.52;;
29854;SDS011;16733;48.738;9.106;2024-01-30T10:00:05;4.97;;;1.42;;
29854;SDS011;16733;48.738;9.106;2024-01-30T10:02:33;4.72;;;1.77;;
29854;SDS011;16733;48.738;9.106;2024-01-30T10:04:59;3.80;;;1.30;;
29854;SDS011;16733;48.738;9.106;2024-01-30T10:07:26;2.30;;;1.48;;
29854;SDS011;16733;48.738;9.106;2024-01-30T10:09:52;3.08;;;1.52;;
29854;SDS011;16733;48.738;9.106;2024-01-30T10:12:18;4.70;;;1.20;;
29854;SDS011;16733;48.738;9.106;2024-01-30T10:14:44;5.07;;;1.60;;
29854;SDS011;16733;48.738;9.106;2024-01-30T10:17:11;5.50;;;1.48;;
29854;SDS011;16733;48.738;9.106;2024-01-30T10:19:37;5.13;;;1.42;;
29854;SDS011;16733;48.738;9.106;2024-01-30T10:22:03;3.38;;;1.58;;
29854;SDS011;16733;48.738;9.106;2024-01-30T10:24:30;3.45;;;1.63;;
29854;SDS011;16733;48.738;9.106;2024-01-30T10:26:56;6.38;;;1.15;;
29854;SDS011;16733;48.738;9.106;2024-01-30T10:29:22;3.58;;;1.50;;
29854;SDS011;16733;48.738;9.106;2024-01-30T10:32:01;3.55;;;1.30;;
29854;SDS011;16733;48.738;9.106;2024-01-30T10:34:28;6.28;;;1.65;;
29854;SDS011;16733;48.738;9.106;2024-01-30T10:37:15;3.28;;;1.55;;
29854;SDS011;16733;48.738;9.106;2024-01-30T10:39:41;1.52;;;1.23;;
29854;SDS011;16733;48.738;9.106;2024-01-30T10:42:11;3.67;;;1.40;;
29854;SDS011;16733;48.738;9.106;2024-01-30T10:47:26;4.82;;;1.42;;
29854;SDS011;16733;48.738;9.106;2024-01-30T10:49:52;6.38;;;1.50;;
29854;SDS011;16733;48.738;9.106;2024-01-30T10:52:19;4.65;;;1.67;;
29854;SDS011;16733;48.738;9.106;2024-01-30T10:54:45;2.55;;;1.52;;
29854;SDS011;16733;48.738;9.106;2024-01-30T10:57:12;7.05;;;1.77;;
29854;SDS011;16733;48.738;9.106;2024-01-30T10:59:39;4.68;;;1.65;;
29854;SDS011;16733;48.738;9.106;2024-01-30T11:02:05;2.85;;;1.55;;
29854;SDS011;16733;48.738;9.106;2024-01-30T11:04:35;2.58;;;1.45;;
29854;SDS011;16733;48.738;9.106;2024-01-30T11:07:01;4.25;;;1.55;;
29854;SDS011;16733;48.738;9.106;2024-01-30T11:09:29;6.22;;;1.65;;
29854;SDS011;16733;48.738;9.106;2024-01-30T11:11:58;2.67;;;1.35;;
29854;SDS011;16733;48.738;9.106;2024-01-30T11:14:25;7.45;;;1.30;;
29854;SDS011;16733;48.738;9.106;2024-01-30T11:16:51;4.07;;;1.20;;
29854;SDS011;16733;48.738;9.106;2024-01-30T11:19:36;5.75;;;1.45;;
29854;SDS011;16733;48.738;9.106;2024-01-30T11:22:02;2.67;;;1.48;;
29854;SDS011;16733;48.738;9.106;2024-01-30T11:24:29;3.03;;;1.20;;
29854;SDS011;16733;48.738;9.106;2024-01-30T11:26:56;3.28;;;1.42;;
29854;SDS011;16733;48.738;9.106;2024-01-30T11:29:27;5.68;;;1.42;;
29854;SDS011;16733;48.738;9.106;2024-01-30T11:31:57;5.63;;;2.00;;
29854;SDS011;16733;48.738;9.106;2024-01-30T11:34:23;3.80;;;1.90;;
29854;SDS011;16733;48.738;9.106;2024-01-30T11:36:59;2.95;;;1.73;;
29854;SDS011;16733;48.738;9.106;2024-01-30T11:39:27;4.93;;;1.73;;
29854;SDS011;16733;48.738;9.106;2024-01-30T11:41:56;3.05;;;1.45;;
29854;SDS011;16733;48.738;9.106;2024-01-30T11:44:23;6.72;;;2.25;;
29854;SDS011;16733;48.738;9.106;2024-01-30T11:46:50;3.80;;;1.40;;
29854;SDS011;16733;48.738;9.106;2024-01-30T11:49:16;7.05;;;1.60;;
29854;SDS011;16733;48.738;9.106;2024-01-30T11:51:43;2.60;;;1.38;;
29854;SDS011;16733;48.738;9.106;2024-01-30T11:54:09;5.10;;;1.67;;
29854;SDS011;16733;48.738;9.106;2024-01-30T11:56:36;9.73;;;3.45;;
29854;SDS011;16733;48.738;9.106;2024-01-30T11:59:02;2.70;;;1.30;;
29854;SDS011;16733;48.738;9.106;2024-01-30T12:01:28;5.18;;;1.58;;
29854;SDS011;16733;48.738;9.106;2024-01-30T12:03:54;2.85;;;1.30;;
29854;SDS011;16733;48.738;9.106;2024-01-30T12:06:21;4.70;;;1.30;;
29854;SDS011;16733;48.738;9.106;2024-01-30T12:08:57;3.00;;;1.35;;
29854;SDS011;16733;48.738;9.106;2024-01-30T12:11:24;4.05;;;1.60;;
29854;SDS011;16733;48.738;9.106;2024-01-30T12:13:53;4.95;;;1.52;;
29854;SDS011;16733;48.738;9.106;2024-01-30T12:16:19;3.42;;;1.55;;
29854;SDS011;16733;48.738;9.106;2024-01-30T12:18:46;3.35;;;1.23;;
29854;SDS011;16733;48.738;9.106;2024-01-30T12:21:12;3.03;;;1.45;;
29854;SDS011;16733;48.738;9.106;2024-01-30T12:23:38;2.35;;;1.35;;
29854;SDS011;16733;48.738;9.106;2024-01-30T12:26:04;5.25;;;1.33;;
29854;SDS011;16733;48.738;9.106;2024-01-30T12:28:32;1.95;;;1.17;;
29854;SDS011;16733;48.738;9.106;2024-01-30T12:31:01;2.55;;;1.25;;
29854;SDS011;16733;48.738;9.106;2024-01-30T12:33:28;2.70;;;1.17;;
29854;SDS011;16733;48.738;9.106;2024-01-30T12:35:54;4.68;;;1.55;;
29854;SDS011;16733;48.738;9.106;2024-01-30T12:38:20;3.28;;;1.52;;
29854;SDS011;16733;48.738;9.106;2024-01-30T12:40:46;3.00;;;1.13;;
29854;SDS011;16733;48.738;9.106;2024-01-30T12:43:15;1.55;;;1.13;;
29854;SDS011;16733;48.738;9.106;2024-01-30T12:45:42;2.97;;;1.35;;
29854;SDS011;16733;48.738;9.106;2024-01-30T12:48:08;2.75;;;1.52;;
29854;SDS011;16733;48.738;9.106;2024-01-30T12:50:34;4.53;;;1.20;;
29854;SDS011;16733;48.738;9.106;2024-01-30T12:53:00;4.10;;;1.73;;
29854;SDS011;16733;48.738;9.106;2024-01-30T12:55:26;4.60;;;1.48;;
29854;SDS011;16733;48.738;9.106;2024-01-30T12:57:53;3.42;;;1.27;;
29854;SDS011;16733;48.738;9.106;2024-01-30T13:00:20;2.63;;;1.23;;
29854;SDS011;16733;48.738;9.106;2024-01-30T13:02:47;3.17;;;1.70;;
29854;SDS011;16733;48.738;9.106;2024-01-30T13:05:13;2.70;;;1.48;;
29854;SDS011;16733;48.738;9.106;2024-01-30T13:07:40;4.18;;;1.83;;
29854;SDS011;16733;48.738;9.106;2024-01-30T13:10:06;3.95;;;1.48;;
29854;SDS011;16733;48.738;9.106;2024-01-30T13:12:32;2.60;;;1.33;;
29854;SDS011;16733;48.738;9.106;2024-01-30T13:14:58;1.95;;;1.23;;
29854;SDS011;16733;48.738;9.106;2024-01-30T13:17:28;1.75;;;1.27;;
29854;SDS011;16733;48.738;9.106;2024-01-30T13:19:55;1.90;;;1.30;;
29854;SDS011;16733;48.738;9.106;2024-01-30T13:22:21;2.80;;;1.48;;
29854;SDS011;16733;48.738;9.106;2024-01-30T13:24:47;4.22;;;1.63;;
29854;SDS011;16733;48.738;9.106;2024-01-30T13:27:13;2.85;;;1.48;;
29854;SDS011;16733;48.738;9.106;2024-01-30T13:29:39;3.17;;;1.13;;
29854;SDS011;16733;48.738;9.106;2024-01-30T13:32:05;2.53;;;1.35;;
29854;SDS011;16733;48.738;9.106;2024-01-30T13:34:31;2.88;;;1.40;;
29854;SDS011;16733;48.738;9.106;2024-01-30T13:36:57;2.38;;;1.45;;
29854;SDS011;16733;48.738;9.106;2024-01-30T13:39:23;2.55;;;1.15;;
29854;SDS011;16733;48.738;9.106;2024-01-30T13:41:49;5.57;;;1.35;;
29854;SDS011;16733;48.738;9.106;2024-01-30T13:44:15;3.05;;;1.67;;
29854;SDS011;16733;48.738;9.106;2024-01-30T13:46:42;2.33;;;1.50;;
29854;SDS011;16733;48.738;9.106;2024-01-30T13:49:08;4.88;;;1.50;;
29854;SDS011;16733;48.738;9.106;2024-01-30T13:51:35;2.10;;;1.25;;
29854;SDS011;16733;48.738;9.106;2024-01-30T13:54:00;2.15;;;1.42;;
29854;SDS011;16733;48.738;9.106;2024-01-30T13:56:26;4.15;;;1.27;;
29854;SDS011;16733;48.738;9.106;2024-01-30T13:58:53;1.55;;;1.10;;
29854;SDS011;16733;48.738;9.106;2024-01-30T14:01:20;9.18;;;1.40;;
29854;SDS011;16733;48.738;9.106;2024-01-30T14:03:46;4.32;;;1.30;;
29854;SDS011;16733;48.738;9.106;2024-01-30T14:06:12;2.03;;;1.42;;
29854;SDS011;16733;48.738;9.106;2024-01-30T14:08:39;2.00;;;1.23;;
29854;SDS011;16733;48.738;9.106;2024-01-30T14:11:05;3.00;;;1.38;;
29854;SDS011;16733;48.738;9.106;2024-01-30T14:13:31;5.75;;;1.10;;
29854;SDS011;16733;48.738;9.106;2024-01-30T14:15:57;2.50;;;1.10;;
29854;SDS011;16733;48.738;9.106;2024-01-30T14:18:23;2.15;;;1.40;;
29854;SDS011;16733;48.738;9.106;2024-01-30T14:20:50;1.65;;;1.15;;
29854;SDS011;16733;48.738;9.106;2024-01-30T14:23:16;2.88;;;1.58;;
29854;SDS011;16733;48.738;9.106;2024-01-30T14:25:43;2.92;;;1.50;;
29854;SDS011;16733;48.738;9.106;2024-01-30T14:28:09;2.83;;;1.33;;
29854;SDS011;16733;48.738;9.106;2024-01-30T14:30:35;3.50;;;1.50;;
29854;SDS011;16733;48.738;9.106;2024-01-30T14:33:01;3.85;;;1.35;;
29854;SDS011;16733;48.738;9.106;2024-01-30T14:35:27;3.08;;;1.58;;
29854;SDS011;16733;48.738;9.106;2024-01-30T14:37:53;3.38;;;1.23;;
29854;SDS011;16733;48.738;9.106;2024-01-30T14:40:19;4.20;;;1.60;;
29854;SDS011;16733;48.738;9.106;2024-01-30T14:42:46;1.92;;;1.13;;
29854;SDS011;16733;48.738;9.106;2024-01-30T14:45:12;2.95;;;1.40;;
29854;SDS011;16733;48.738;9.106;2024-01-30T14:47:38;3.97;;;1.08;;